createdAt,value
2023-01-02T00:01:30.600Z,0.70
2023-01-02T00:04:35.773Z,0.85
2023-01-02T00:07:41.449Z,0.60
2023-01-02T00:10:47.100Z,0.70
2023-01-02T00:13:54.908Z,0.70
2023-01-02T00:17:00.274Z,0.80
2023-01-02T00:20:05.769Z,0.60
2023-01-02T00:23:11.581Z,0.80
2023-01-02T00:26:16.828Z,0.90
2023-01-02T00:29:24.945Z,0.60
2023-01-02T00:32:30.325Z,1.00
2023-01-02T00:35:54.630Z,0.85
2023-01-02T00:39:00.143Z,0.80
2023-01-02T00:42:05.165Z,0.90
2023-01-02T00:45:13.935Z,0.70
2023-01-02T00:48:19.339Z,0.80
2023-01-02T00:51:24.747Z,1.00
2023-01-02T00:54:30.167Z,0.98
2023-01-02T00:57:36.016Z,1.20
2023-01-02T01:00:43.971Z,1.02
2023-01-02T01:03:49.690Z,0.90
2023-01-02T01:06:55.382Z,1.30
2023-01-02T01:10:01.055Z,1.10
2023-01-02T01:13:06.679Z,0.77
2023-01-02T01:16:15.675Z,0.75
2023-01-02T01:19:20.927Z,0.70
2023-01-02T01:22:26.545Z,0.70
2023-01-02T01:25:31.700Z,0.70
2023-01-02T01:28:37.567Z,0.75
2023-01-02T01:31:45.435Z,0.70
2023-01-02T01:34:51.323Z,0.68
2023-01-02T01:37:57.946Z,0.47
2023-01-02T01:41:04.035Z,0.40
2023-01-02T01:44:23.935Z,0.40
2023-01-02T01:47:36.069Z,0.30
2023-01-02T01:50:41.556Z,0.30
2023-01-02T01:53:48.071Z,0.30
2023-01-02T01:56:55.685Z,0.40
2023-01-02T02:00:02.044Z,0.40
2023-01-02T02:03:14.586Z,0.50
2023-01-02T02:06:20.998Z,0.40
2023-01-02T02:09:28.292Z,0.30
2023-01-02T02:12:34.212Z,0.40
2023-01-02T02:15:43.236Z,0.38
2023-01-02T02:18:59.622Z,0.40
2023-01-02T02:22:20.576Z,0.40
2023-01-02T02:25:33.818Z,0.30
2023-01-02T02:29:01.730Z,0.30
2023-01-02T02:32:14.104Z,0.30
2023-01-02T02:35:22.801Z,0.20
2023-01-02T02:38:35.725Z,0.35
2023-01-02T02:41:46.058Z,0.20
2023-01-02T02:44:57.108Z,0.30
2023-01-02T02:48:08.879Z,0.20
2023-01-02T02:51:16.597Z,1.02
2023-01-02T02:54:24.341Z,0.20
2023-01-02T02:57:30.331Z,0.20
2023-01-02T03:00:35.791Z,0.30
2023-01-02T03:03:43.909Z,0.30
2023-01-02T03:06:57.397Z,0.30
2023-01-02T03:10:11.804Z,0.50
2023-01-02T03:13:21.478Z,0.30
2023-01-02T03:16:28.950Z,0.20
2023-01-02T03:19:40.655Z,0.20
2023-01-02T03:22:47.599Z,0.20
2023-01-02T03:25:53.016Z,0.30
2023-01-02T03:29:01.267Z,0.28
2023-01-02T03:32:08.279Z,0.40
2023-01-02T03:35:20.685Z,0.40
2023-01-02T03:38:27.077Z,0.30
2023-01-02T03:41:35.645Z,0.40
2023-01-02T03:47:49.123Z,0.52
2023-01-02T03:50:58.246Z,1.33
2023-01-02T03:54:04.333Z,0.40
2023-01-02T03:57:13.581Z,0.40
2023-01-02T04:00:21.362Z,0.30
2023-01-02T04:03:29.261Z,0.65
2023-01-02T04:06:39.971Z,0.50
2023-01-02T04:09:46.981Z,0.47
2023-01-02T04:12:54.179Z,0.30
2023-01-02T04:16:00.251Z,0.73
2023-01-02T04:19:06.818Z,0.85
2023-01-02T04:22:17.498Z,0.40
2023-01-02T04:25:23.344Z,0.47
2023-01-02T04:28:30.452Z,0.40
2023-01-02T04:31:39.493Z,0.75
2023-01-02T04:34:46.111Z,0.50
2023-01-02T04:37:54.199Z,0.77
2023-01-02T04:40:59.587Z,0.50
2023-01-02T04:44:05.010Z,0.40
2023-01-02T04:47:10.130Z,0.30
2023-01-02T04:50:15.951Z,0.70
2023-01-02T04:53:23.590Z,0.60
2023-01-02T04:56:29.209Z,0.50
2023-01-02T04:59:34.344Z,0.68
2023-01-02T05:02:39.757Z,0.55
2023-01-02T05:05:45.391Z,0.80
2023-01-02T05:08:55.010Z,0.45
2023-01-02T05:12:00.144Z,0.40
2023-01-02T05:15:05.379Z,0.50
2023-01-02T05:18:10.837Z,0.60
2023-01-02T05:21:28.872Z,0.60
2023-01-02T05:24:36.637Z,0.40
2023-01-02T05:27:42.071Z,0.70
2023-01-02T05:30:47.552Z,0.77
2023-01-02T05:33:55.803Z,0.60
2023-01-02T05:37:01.207Z,0.50
2023-01-02T05:40:09.548Z,0.63
2023-01-02T05:46:21.276Z,0.43
2023-01-02T05:49:26.612Z,0.52
2023-01-02T05:52:32.314Z,0.50
2023-01-02T05:55:40.188Z,0.60
2023-01-02T05:58:45.955Z,0.60
2023-01-02T06:01:51.194Z,0.60
2023-01-02T06:04:56.692Z,0.95
2023-01-02T06:08:02.463Z,0.40
2023-01-02T06:11:10.617Z,0.60
2023-01-02T06:14:15.986Z,1.33
2023-01-02T06:17:21.718Z,0.50
2023-01-02T06:20:27.327Z,0.47
2023-01-02T06:23:32.891Z,0.35
2023-01-02T06:26:41.176Z,0.40
2023-01-02T06:29:46.310Z,0.85
2023-01-02T06:32:51.557Z,0.30
2023-01-02T06:36:00.368Z,0.77
2023-01-02T06:39:05.553Z,0.70
2023-01-02T06:42:14.211Z,0.60
2023-01-02T06:45:19.543Z,0.60
2023-01-02T06:48:24.805Z,0.40
2023-01-02T06:51:30.475Z,0.50
2023-01-02T06:54:36.195Z,0.50
2023-01-02T06:57:44.359Z,0.82
2023-01-02T07:00:49.886Z,0.65
2023-01-02T07:03:56.285Z,1.50
2023-01-02T07:07:01.657Z,0.50
2023-01-02T07:10:08.143Z,0.68
2023-01-02T07:13:15.976Z,0.50
2023-01-02T07:16:22.621Z,0.75
2023-01-02T07:19:27.933Z,0.80
2023-01-02T07:22:33.407Z,0.70
2023-01-02T07:25:44.208Z,0.60
2023-01-02T07:28:52.929Z,0.55
2023-01-02T07:31:58.709Z,0.70
2023-01-02T07:35:04.663Z,0.80
2023-01-02T07:38:09.756Z,0.70
2023-01-02T07:41:16.083Z,0.70
2023-01-02T07:44:24.371Z,0.50
2023-01-02T07:47:29.467Z,0.65
2023-01-02T07:50:34.809Z,0.50
2023-01-02T07:53:41.851Z,0.90
2023-01-02T07:56:47.272Z,1.00
2023-01-02T07:59:55.057Z,0.75
2023-01-02T08:03:00.537Z,0.77
2023-01-02T08:06:06.458Z,0.60
2023-01-02T08:09:12.027Z,0.40
2023-01-02T08:12:17.573Z,0.70
2023-01-02T08:15:25.219Z,0.75
2023-01-02T08:18:30.727Z,0.80
2023-01-02T08:21:35.901Z,0.82
2023-01-02T08:24:41.524Z,0.70
2023-01-02T08:27:46.988Z,0.82
2023-01-02T08:30:55.141Z,0.65
2023-01-02T08:34:00.156Z,0.73
2023-01-02T08:37:05.643Z,0.60
2023-01-02T08:40:11.198Z,0.90
2023-01-02T08:43:22.256Z,0.70
2023-01-02T08:46:30.194Z,0.60
2023-01-02T08:49:35.572Z,0.88
2023-01-02T08:52:40.908Z,0.88
2023-01-02T08:55:46.233Z,0.65
2023-01-02T08:58:54.800Z,0.80
2023-01-02T09:02:02.972Z,0.70
2023-01-02T09:05:09.166Z,0.88
2023-01-02T09:08:14.163Z,0.68
2023-01-02T09:11:21.041Z,0.75
2023-01-02T09:14:26.737Z,0.70
2023-01-02T09:17:34.838Z,1.63
2023-01-02T09:20:42.835Z,0.60
2023-01-02T09:23:48.356Z,1.10
2023-01-02T09:26:53.725Z,1.00
2023-01-02T09:29:59.159Z,1.13
2023-01-02T09:33:09.171Z,0.70
2023-01-02T09:36:15.371Z,0.80
2023-01-02T09:39:20.822Z,0.82
2023-01-02T09:42:27.358Z,0.85
2023-01-02T09:45:32.895Z,1.08
2023-01-02T09:48:41.164Z,0.82
2023-01-02T09:51:46.626Z,1.17
2023-01-02T09:54:52.087Z,0.82
2023-01-02T09:58:00.732Z,0.85
2023-01-02T10:01:07.154Z,0.80
2023-01-02T10:04:21.836Z,0.73
2023-01-02T10:07:31.871Z,0.70
2023-01-02T10:10:41.484Z,0.80
2023-01-02T10:17:15.617Z,0.68
2023-01-02T10:20:28.051Z,0.98
2023-01-02T10:23:36.616Z,0.80
2023-01-02T10:26:44.674Z,0.68
2023-01-02T10:29:53.606Z,0.70
2023-01-02T10:33:01.478Z,0.70
2023-01-02T10:36:13.207Z,1.00
2023-01-02T10:39:19.884Z,1.45
2023-01-02T10:42:25.965Z,0.90
2023-01-02T10:45:31.896Z,0.85
2023-01-02T10:48:39.262Z,1.13
2023-01-02T10:51:51.833Z,0.80
2023-01-02T10:55:00.301Z,1.15
2023-01-02T10:58:06.777Z,1.02
2023-01-02T11:01:21.561Z,0.90
2023-01-02T11:04:28.081Z,0.85
2023-01-02T11:07:40.130Z,0.90
2023-01-02T11:10:45.708Z,0.80
2023-01-02T11:13:54.491Z,0.90
2023-01-02T11:17:05.314Z,1.00
2023-01-02T11:20:21.511Z,0.68
2023-01-02T11:23:30.127Z,0.60
2023-01-02T11:26:36.515Z,0.85
2023-01-02T11:29:42.159Z,0.90
2023-01-02T11:32:47.256Z,0.88
2023-01-02T11:35:54.099Z,0.68
2023-01-02T11:39:01.961Z,0.80
2023-01-02T11:42:26.952Z,1.13
2023-01-02T11:45:33.448Z,1.10
2023-01-02T11:48:40.077Z,0.90
2023-01-02T11:51:45.196Z,0.80
2023-01-02T11:54:55.843Z,0.82
2023-01-02T11:58:05.309Z,0.90
2023-01-02T12:01:14.920Z,1.20
2023-01-02T12:04:20.444Z,0.95
2023-01-02T12:07:32.526Z,0.90
2023-01-02T12:10:50.439Z,0.85
2023-01-02T12:14:07.332Z,1.00
2023-01-02T12:17:18.107Z,0.82
2023-01-02T12:20:38.240Z,0.80
2023-01-02T12:23:55.786Z,0.95
2023-01-02T12:27:06.145Z,0.93
2023-01-02T12:30:12.503Z,0.88
2023-01-02T12:33:27.118Z,1.20
2023-01-02T12:36:38.092Z,0.90
2023-01-02T12:39:55.231Z,1.40
2023-01-02T12:43:10.845Z,1.10
2023-01-02T12:46:20.960Z,1.83
2023-01-02T12:49:35.920Z,1.35
2023-01-02T12:52:50.806Z,0.93
2023-01-02T12:56:01.622Z,1.08
2023-01-02T12:59:13.454Z,1.25
2023-01-02T13:02:24.306Z,1.10
2023-01-02T13:05:32.008Z,1.33
2023-01-02T13:08:44.330Z,1.02
2023-01-02T13:11:51.991Z,1.08
2023-01-02T13:15:01.051Z,1.30
2023-01-02T13:18:09.826Z,1.55
2023-01-02T13:21:19.613Z,1.17
2023-01-02T13:24:26.303Z,1.65
2023-01-02T13:27:31.506Z,2.00
2023-01-02T13:30:46.680Z,1.00
2023-01-02T13:33:52.577Z,1.60
2023-01-02T13:37:02.057Z,1.08
2023-01-02T13:40:07.946Z,0.80
2023-01-02T13:43:18.627Z,1.73
2023-01-02T13:47:02.303Z,1.20
2023-01-02T13:50:00.698Z,1.13
2023-01-02T13:53:08.082Z,1.17
2023-01-02T13:56:14.521Z,1.53
2023-01-02T13:59:42.460Z,1.05
2023-01-02T14:03:12.388Z,1.00
2023-01-02T14:06:31.352Z,1.10
2023-01-02T14:09:56.400Z,1.50
2023-01-02T14:13:04.515Z,0.82
2023-01-02T14:16:23.084Z,1.10
2023-01-02T14:19:31.412Z,1.27
2023-01-02T14:22:45.298Z,1.20
2023-01-02T14:25:52.335Z,1.20
2023-01-02T14:28:59.800Z,1.20
2023-01-02T14:32:07.725Z,1.25
2023-01-02T14:35:29.174Z,1.20
2023-01-02T14:38:38.663Z,1.25
2023-01-02T14:42:11.183Z,1.30
2023-01-02T14:45:19.851Z,1.55
2023-01-02T14:48:30.971Z,1.40
2023-01-02T14:51:42.276Z,1.80
2023-01-02T14:54:50.474Z,1.52
2023-01-02T14:57:56.392Z,1.95
2023-01-02T15:01:04.725Z,1.48
2023-01-02T15:07:24.987Z,1.83
2023-01-02T15:10:30.668Z,1.25
2023-01-02T15:13:33.523Z,1.30
2023-01-02T15:16:59.556Z,2.03
2023-01-02T15:20:05.210Z,1.45
2023-01-02T15:23:20.773Z,1.35
2023-01-02T15:26:31.493Z,1.92
2023-01-02T15:29:45.401Z,1.70
2023-01-02T15:32:53.272Z,1.45
2023-01-02T15:35:59.682Z,1.30
2023-01-02T15:39:15.864Z,1.85
2023-01-02T15:42:38.620Z,1.48
2023-01-02T15:45:45.669Z,1.60
2023-01-02T15:48:51.057Z,1.38
2023-01-02T15:51:59.213Z,1.60
2023-01-02T15:55:07.440Z,1.77
2023-01-02T15:58:20.918Z,1.67
2023-01-02T16:01:26.607Z,1.83
2023-01-02T16:04:33.031Z,1.38
2023-01-02T16:07:39.000Z,1.40
2023-01-02T16:10:51.215Z,1.67
2023-01-02T16:14:10.848Z,1.65
2023-01-02T16:17:18.829Z,1.52
2023-01-02T16:20:25.332Z,1.60
2023-01-02T16:23:31.192Z,1.42
2023-01-02T16:26:42.812Z,1.77
2023-01-02T16:29:48.176Z,2.00
2023-01-02T16:32:53.634Z,1.40
2023-01-02T16:36:01.350Z,1.95
2023-01-02T16:39:06.698Z,1.88
2023-01-02T16:42:27.012Z,1.70
2023-01-02T16:45:32.573Z,1.38
2023-01-02T16:48:41.128Z,1.60
2023-01-02T16:51:46.936Z,1.58
2023-01-02T16:54:54.366Z,1.75
2023-01-02T16:58:02.708Z,1.80
2023-01-02T17:01:08.613Z,1.80
2023-01-02T17:04:14.422Z,1.27
2023-01-02T17:07:22.359Z,1.55
2023-01-02T17:10:29.196Z,1.73
2023-01-02T17:13:37.193Z,3.80
2023-01-02T17:16:42.216Z,1.58
2023-01-02T17:19:47.830Z,1.70
2023-01-02T17:22:52.964Z,3.67
2023-01-02T17:25:58.829Z,2.28
2023-01-02T17:29:06.886Z,2.63
2023-01-02T17:32:12.207Z,2.03
2023-01-02T17:35:18.540Z,1.48
2023-01-02T17:38:24.309Z,1.60
2023-01-02T17:41:29.677Z,1.60
2023-01-02T17:44:37.884Z,2.10
2023-01-02T17:48:03.572Z,1.65
2023-01-02T17:51:08.148Z,1.60
2023-01-02T17:54:13.480Z,1.65
2023-01-02T17:57:20.274Z,1.70
2023-01-02T18:00:28.260Z,1.30
2023-01-02T18:03:34.064Z,2.33
2023-01-02T18:06:39.223Z,1.10
2023-01-02T18:09:44.691Z,1.92
2023-01-02T18:13:09.929Z,1.30
2023-01-02T18:16:19.331Z,1.40
2023-01-02T18:19:25.694Z,1.45
2023-01-02T18:22:31.885Z,1.80
2023-01-02T18:25:37.526Z,1.27
2023-01-02T18:28:44.592Z,1.75
2023-01-02T18:31:52.887Z,1.67
2023-01-02T18:34:59.806Z,1.65
2023-01-02T18:38:17.057Z,1.38
2023-01-02T18:41:28.537Z,1.80
2023-01-02T18:44:34.269Z,2.00
2023-01-02T18:47:42.312Z,1.70
2023-01-02T18:50:48.405Z,1.75
2023-01-02T18:53:54.245Z,1.58
2023-01-02T18:57:00.258Z,1.45
2023-01-02T19:00:19.349Z,1.42
2023-01-02T19:03:28.586Z,1.83
2023-01-02T19:06:39.058Z,1.45
2023-01-02T19:09:44.613Z,1.50
2023-01-02T19:13:07.696Z,4.53
2023-01-02T19:16:14.544Z,1.55
2023-01-02T19:19:26.620Z,1.48
2023-01-02T19:22:35.172Z,2.47
2023-01-02T19:28:49.973Z,1.65
2023-01-02T19:31:59.922Z,1.60
2023-01-02T19:35:14.634Z,1.67
2023-01-02T19:38:24.459Z,1.80
2023-01-02T19:41:42.264Z,1.70
2023-01-02T19:44:47.675Z,1.60
2023-01-02T19:47:53.223Z,1.45
2023-01-02T19:51:01.311Z,1.70
2023-01-02T19:54:06.722Z,2.03
2023-01-02T19:57:12.783Z,1.98
2023-01-02T20:00:19.678Z,2.10
2023-01-02T20:03:25.081Z,2.10
2023-01-02T20:06:34.000Z,1.90
2023-01-02T20:09:39.535Z,1.55
2023-01-02T20:12:45.149Z,1.70
2023-01-02T20:15:50.684Z,1.58
2023-01-02T20:18:56.202Z,1.75
2023-01-02T20:22:04.209Z,1.67
2023-01-02T20:25:10.695Z,1.80
2023-01-02T20:28:17.347Z,2.07
2023-01-02T20:31:23.046Z,1.50
2023-01-02T20:34:28.474Z,1.80
2023-01-02T20:37:36.212Z,1.80
2023-01-02T20:40:41.345Z,1.73
2023-01-02T20:43:46.563Z,2.05
2023-01-02T20:46:52.039Z,1.65
2023-01-02T20:49:57.398Z,2.22
2023-01-02T20:53:06.869Z,1.42
2023-01-02T20:56:12.118Z,1.60
2023-01-02T20:59:17.548Z,1.50
2023-01-02T21:02:23.119Z,2.13
2023-01-02T21:05:28.579Z,1.80
2023-01-02T21:08:36.978Z,2.90
2023-01-02T21:11:43.365Z,2.13
2023-01-02T21:14:48.660Z,2.35
2023-01-02T21:17:54.164Z,1.65
2023-01-02T21:21:01.272Z,1.60
2023-01-02T21:24:09.795Z,1.70
2023-01-02T21:27:15.385Z,1.63
2023-01-02T21:30:22.352Z,1.75
2023-01-02T21:33:28.335Z,2.17
2023-01-02T21:36:35.150Z,1.40
2023-01-02T21:39:45.315Z,2.00
2023-01-02T21:42:50.522Z,1.88
2023-01-02T21:45:56.114Z,1.67
2023-01-02T21:49:01.847Z,1.52
2023-01-02T21:52:08.466Z,1.95
2023-01-02T21:55:17.873Z,2.22
2023-01-02T21:58:23.492Z,1.83
2023-01-02T22:01:29.452Z,1.63
2023-01-02T22:04:36.131Z,1.85
2023-01-02T22:07:42.608Z,1.30
2023-01-02T22:10:51.479Z,1.48
2023-01-02T22:13:57.155Z,1.73
2023-01-02T22:17:04.109Z,1.67
2023-01-02T22:20:09.884Z,1.15
2023-01-02T22:23:15.471Z,1.30
2023-01-02T22:26:23.703Z,1.27
2023-01-02T22:30:00.335Z,2.45
2023-01-02T22:32:55.366Z,1.52
2023-01-02T22:36:00.622Z,1.60
2023-01-02T22:43:00.503Z,1.50
2023-01-02T22:46:08.395Z,1.40
2023-01-02T22:49:15.581Z,2.25
2023-01-02T22:52:20.940Z,1.77
2023-01-02T22:55:26.779Z,1.52
2023-01-02T22:58:34.449Z,1.48
2023-01-02T23:01:42.327Z,1.25
2023-01-02T23:04:47.692Z,1.35
2023-01-02T23:07:53.358Z,1.77
2023-01-02T23:10:58.629Z,1.10
2023-01-02T23:14:06.868Z,1.50
2023-01-02T23:17:25.435Z,1.20
2023-01-02T23:20:31.238Z,1.30
2023-01-02T23:23:36.435Z,1.95
2023-01-02T23:26:43.416Z,1.50
2023-01-02T23:29:51.406Z,1.80
2023-01-02T23:32:57.213Z,1.38
2023-01-02T23:36:02.550Z,1.50
2023-01-02T23:39:08.435Z,1.80
2023-01-02T23:42:14.045Z,1.23
2023-01-02T23:45:22.552Z,1.52
2023-01-02T23:48:28.312Z,1.33
2023-01-02T23:51:33.883Z,1.70
2023-01-02T23:54:39.484Z,1.50
2023-01-02T23:57:44.781Z,1.50
